Etusivu
METAR-TAF:

METAR-TAF

Lentoasemat :

Avignon, Ranska

Leveyspiiri: 43-54-26N, Pituuspiiri: 004-54-07E, korkeus merenpinnasta: 38 m

Tämänhetkinen sää

Tämä raportti tehtiin 46 minuuttia sitten, kello 08.00 UTC
Tuuli 16 kn pohjoisesta puuskistuen 27 kn:hen, vaihdellen luoteen ja pohjoisen välillä
Lämpötila 11°C
Kosteus 54%
Ilmanpaine 1016 hPa
Näkyvyys 10 km tai enemmän
ei pilviä alle 1500 m:ssä eikä cumulonimbus-pilviä

METAR: LFMV 210800Z AUTO 35016G27KT 310V010 CAVOK 11/02 Q1016 NOSIG

Aika: 10:46 (08:46 UTC)

Sääennuste

Tämä raportti tehtiin 6 tuntia ja 46 minuuttia sitten, kello 02.00 UTC
Ennuste voimassa 21. päivästä klo 03 UTC - 22. päivään klo 03 UTC
Tuuli 17 kn pohjoisen/luoteesta puuskistuen 30 kn:hen
Näkyvyys 10 km tai enemmän
ei pilviä alle 1500 m:ssä eikä cumulonimbus-pilviä
Ajoittain
21. päivästä klo 12 UTC - 22. päivään klo 03 UTC
Tuuli 25 kn pohjoisesta puuskistuen 40 kn:hen

TAF: LFMV 210200Z 2103/2203 34017G30KT CAVOK TEMPO 2112/2203 35025G40KT

Säähavainnot ja -ennusteet yli 4000 lentoasemalta (METAR- ja TAF-raportit).

Käytössä olevat sääasemat on merkitty karttaan keltaisilla ja punaisilla pisteillä.

Aseta hiiri pisteen päälle nähdäksesi sääaseman nimen.

Klikkaa sitten nähdäksesi säähavainnot ja -ennusteet.

Kartan vaihtaminen: klikkaa mustalla rastilla varustettuja vihreitä pisteitä, niin voit zoomata sisään; viivalla varustettua vihreää pistettä, niin voit zoomata ulos tai vihreitä nuolia, niin pääset viereisille kartoille.


METAR-TAF: